DLH273 LPMA-EDDF
Flight info
| Callsign | DLH273 |
|---|---|
| Flight time | N/A |
| Altitude | 36000 |
| Route | DEGUN DCT RULET DCT GALPA DCT TOSDI DCT ZMR DCT NUBLO DCT RONSI DCT DELOG DCT PEXOD DCT DIDIG DCT TIRAV DCT ERJAZ DCT PIWIZ DCT TSU DCT OQQAL DCT RANUX/N0452F370 DCT VALEK DCT LIPNI UN858 LIMGO Z111 TUTOV/N0420F230 Z111 RAMOB IMCOM1A |
| Aircraft | A319/M-SDE3FGHIRWY/LB1 |
Departure
| Time | 2026-05-07 18:37 |
|---|---|
| Airport | Cristiano Ronaldo International Airport (LPMA) |
Arrival
| Time | N/A |
|---|---|
| Airport | Frankfurt Main Airport (EDDF) |
| Time | Latitude | Longitude | Altitude | Speed | Heading |
|---|---|---|---|---|---|
| 2026-05-07 17:58 | 32.69333 | -16.77689 | 172 ft | 0 kts | 138° |
| 2026-05-07 18:24 | 32.69347 | -16.77704 | 172 ft | 4 kts | 133° |
| 2026-05-07 18:24 | 32.69363 | -16.77729 | 172 ft | 4 kts | 114° |
| 2026-05-07 18:24 | 32.69368 | -16.77757 | 172 ft | 4 kts | 54° |
| 2026-05-07 18:24 | 32.69362 | -16.77766 | 172 ft | 0 kts | 46° |
| 2026-05-07 18:28 | 32.69371 | -16.77755 | 173 ft | 6 kts | 46° |
| 2026-05-07 18:28 | 32.69421 | -16.77694 | 174 ft | 14 kts | 46° |
| 2026-05-07 18:28 | 32.69487 | -16.77611 | 176 ft | 13 kts | 46° |
| 2026-05-07 18:28 | 32.69547 | -16.77539 | 177 ft | 12 kts | 46° |
| 2026-05-07 18:29 | 32.69612 | -16.77458 | 179 ft | 16 kts | 46° |
| 2026-05-07 18:29 | 32.69702 | -16.77349 | 181 ft | 21 kts | 46° |
| 2026-05-07 18:29 | 32.69795 | -16.77233 | 183 ft | 16 kts | 46° |
| 2026-05-07 18:29 | 32.69810 | -16.77214 | 183 ft | 0 kts | 46° |
| 2026-05-07 18:34 | 32.69812 | -16.77213 | 183 ft | 2 kts | 46° |
| 2026-05-07 18:34 | 32.69860 | -16.77165 | 187 ft | 14 kts | 20° |
| 2026-05-07 18:34 | 32.69939 | -16.77166 | 198 ft | 13 kts | 357° |
| 2026-05-07 18:34 | 32.70066 | -16.77127 | 198 ft | 24 kts | 47° |
| 2026-05-07 18:35 | 32.70182 | -16.76990 | 202 ft | 23 kts | 44° |
| 2026-05-07 18:35 | 32.70297 | -16.76856 | 199 ft | 24 kts | 44° |
| 2026-05-07 18:35 | 32.70432 | -16.76697 | 204 ft | 29 kts | 44° |
| 2026-05-07 18:35 | 32.70575 | -16.76531 | 200 ft | 28 kts | 45° |
| 2026-05-07 18:36 | 32.70677 | -16.76457 | 200 ft | 12 kts | 12° |
| 2026-05-07 18:36 | 32.70716 | -16.76399 | 201 ft | 10 kts | 124° |
| 2026-05-07 18:36 | 32.70671 | -16.76407 | 201 ft | 8 kts | 243° |
| 2026-05-07 18:36 | 32.70631 | -16.76465 | 205 ft | 15 kts | 226° |
| 2026-05-07 18:37 | 32.70381 | -16.76755 | 200 ft | 84 kts | 224° |
| 2026-05-07 18:37 | 32.69825 | -16.77405 | 199 ft | 138 kts | 224° |
| 2026-05-07 18:37 | 32.69079 | -16.78278 | 525 ft | 152 kts | 225° |
| 2026-05-07 18:37 | 32.68263 | -16.79073 | 1077 ft | 158 kts | 207° |
| 2026-05-07 18:38 | 32.67114 | -16.79243 | 1378 ft | 182 kts | 178° |
| 2026-05-07 18:38 | 32.65773 | -16.79240 | 1554 ft | 203 kts | 200° |
| 2026-05-07 18:38 | 32.64423 | -16.79977 | 1850 ft | 226 kts | 207° |
| 2026-05-07 18:38 | 32.62788 | -16.80300 | 2290 ft | 252 kts | 179° |
| 2026-05-07 18:39 | 32.61085 | -16.79625 | 3014 ft | 268 kts | 150° |
| 2026-05-07 18:39 | 32.59751 | -16.78089 | 3842 ft | 277 kts | 126° |
| 2026-05-07 18:39 | 32.58986 | -16.75975 | 4691 ft | 284 kts | 102° |
| 2026-05-07 18:39 | 32.58962 | -16.73617 | 5491 ft | 289 kts | 77° |
| 2026-05-07 18:40 | 32.59671 | -16.71388 | 6338 ft | 291 kts | 63° |
| 2026-05-07 18:40 | 32.60452 | -16.69160 | 7120 ft | 295 kts | 66° |
| 2026-05-07 18:40 | 32.61165 | -16.66860 | 7912 ft | 299 kts | 68° |
| 2026-05-07 18:40 | 32.61862 | -16.64511 | 8706 ft | 303 kts | 68° |
| 2026-05-07 18:41 | 32.62565 | -16.62136 | 9498 ft | 307 kts | 68° |
| 2026-05-07 18:41 | 32.63287 | -16.59734 | 10217 ft | 312 kts | 66° |
| 2026-05-07 18:41 | 32.64092 | -16.57250 | 10469 ft | 333 kts | 62° |
| 2026-05-07 18:41 | 32.65240 | -16.54772 | 10659 ft | 352 kts | 52° |
| 2026-05-07 18:42 | 32.66792 | -16.52433 | 10812 ft | 370 kts | 43° |
| 2026-05-07 18:42 | 32.68670 | -16.50287 | 11262 ft | 378 kts | 39° |
| 2026-05-07 18:42 | 32.70589 | -16.48122 | 11892 ft | 382 kts | 39° |
| 2026-05-07 18:42 | 32.72517 | -16.45925 | 12535 ft | 386 kts | 39° |
| 2026-05-07 18:43 | 32.74469 | -16.43705 | 13164 ft | 390 kts | 38° |
| 2026-05-07 18:43 | 32.76469 | -16.41505 | 13800 ft | 393 kts | 37° |
| 2026-05-07 18:43 | 32.78510 | -16.39321 | 14358 ft | 397 kts | 36° |
| 2026-05-07 18:43 | 32.80585 | -16.37141 | 14914 ft | 400 kts | 36° |
| 2026-05-07 18:44 | 32.82688 | -16.34950 | 15460 ft | 404 kts | 36° |
| 2026-05-07 18:44 | 32.84808 | -16.32738 | 16010 ft | 407 kts | 35° |
| 2026-05-07 18:44 | 32.86941 | -16.30500 | 16551 ft | 411 kts | 36° |
| 2026-05-07 18:44 | 32.89094 | -16.28226 | 17099 ft | 415 kts | 35° |
| 2026-05-07 18:45 | 32.91227 | -16.25963 | 17639 ft | 418 kts | 35° |
| 2026-05-07 18:45 | 32.93407 | -16.23645 | 18192 ft | 422 kts | 35° |
| 2026-05-07 18:45 | 32.95603 | -16.21307 | 18661 ft | 425 kts | 35° |
| 2026-05-07 18:45 | 32.97815 | -16.18951 | 19123 ft | 428 kts | 35° |
| 2026-05-07 18:46 | 33.00044 | -16.16577 | 19585 ft | 430 kts | 35° |
| 2026-05-07 18:46 | 33.02284 | -16.14190 | 20047 ft | 433 kts | 35° |
| 2026-05-07 18:46 | 33.04537 | -16.11789 | 20498 ft | 435 kts | 35° |
| 2026-05-07 18:46 | 33.06805 | -16.09374 | 20932 ft | 438 kts | 35° |
| 2026-05-07 18:47 | 33.09083 | -16.06947 | 21359 ft | 441 kts | 35° |
| 2026-05-07 18:47 | 33.11377 | -16.04501 | 21771 ft | 444 kts | 36° |
| 2026-05-07 18:47 | 33.13689 | -16.02030 | 22178 ft | 446 kts | 36° |
| 2026-05-07 18:47 | 33.16009 | -15.99550 | 22575 ft | 449 kts | 36° |
| 2026-05-07 18:48 | 33.18350 | -15.97048 | 22954 ft | 452 kts | 36° |
| 2026-05-07 18:48 | 33.20706 | -15.94529 | 23331 ft | 455 kts | 36° |
| 2026-05-07 18:48 | 33.23072 | -15.91994 | 23674 ft | 458 kts | 36° |
| 2026-05-07 18:48 | 33.25419 | -15.89478 | 23974 ft | 461 kts | 36° |
| 2026-05-07 18:49 | 33.27814 | -15.86906 | 24279 ft | 464 kts | 36° |
| 2026-05-07 18:49 | 33.30225 | -15.84317 | 24569 ft | 467 kts | 36° |
| 2026-05-07 18:49 | 33.32650 | -15.81714 | 24870 ft | 470 kts | 37° |
| 2026-05-07 18:49 | 33.35091 | -15.79091 | 25158 ft | 472 kts | 37° |
| 2026-05-07 18:50 | 33.37539 | -15.76454 | 25435 ft | 475 kts | 37° |
| 2026-05-07 18:50 | 33.40006 | -15.73793 | 25721 ft | 478 kts | 37° |
| 2026-05-07 18:50 | 33.42481 | -15.71124 | 25992 ft | 481 kts | 37° |
| 2026-05-07 18:50 | 33.44972 | -15.68436 | 26259 ft | 483 kts | 37° |
| 2026-05-07 18:51 | 33.47476 | -15.65732 | 26513 ft | 486 kts | 37° |
| 2026-05-07 18:51 | 33.49994 | -15.63012 | 26769 ft | 488 kts | 38° |
| 2026-05-07 18:51 | 33.52525 | -15.60273 | 27015 ft | 491 kts | 38° |
| 2026-05-07 18:51 | 33.55069 | -15.57514 | 27253 ft | 494 kts | 38° |
| 2026-05-07 18:52 | 33.57622 | -15.54744 | 27484 ft | 497 kts | 38° |
| 2026-05-07 18:52 | 33.60161 | -15.51990 | 27721 ft | 499 kts | 38° |
| 2026-05-07 18:52 | 33.62743 | -15.49187 | 28014 ft | 500 kts | 38° |
| 2026-05-07 18:52 | 33.65323 | -15.46383 | 28356 ft | 501 kts | 38° |
| 2026-05-07 18:53 | 33.67910 | -15.43576 | 28683 ft | 501 kts | 39° |
| 2026-05-07 18:53 | 33.70504 | -15.40757 | 29019 ft | 502 kts | 39° |
| 2026-05-07 18:53 | 33.73090 | -15.37943 | 29349 ft | 502 kts | 39° |
| 2026-05-07 18:53 | 33.75681 | -15.35121 | 29662 ft | 503 kts | 39° |
| 2026-05-07 18:54 | 33.78278 | -15.32287 | 30000 ft | 504 kts | 39° |
| 2026-05-07 18:54 | 33.80882 | -15.29443 | 30284 ft | 504 kts | 39° |
| 2026-05-07 18:54 | 33.83481 | -15.26602 | 30551 ft | 505 kts | 39° |
| 2026-05-07 18:54 | 33.86081 | -15.23754 | 30814 ft | 506 kts | 40° |
| 2026-05-07 18:55 | 33.88688 | -15.20898 | 31075 ft | 507 kts | 40° |
| 2026-05-07 18:55 | 33.91272 | -15.18073 | 31342 ft | 507 kts | 40° |
| 2026-05-07 18:55 | 33.93889 | -15.15213 | 31606 ft | 508 kts | 40° |
| 2026-05-07 18:55 | 33.96517 | -15.12336 | 31869 ft | 509 kts | 40° |
| 2026-05-07 18:56 | 33.99137 | -15.09457 | 32130 ft | 510 kts | 40° |
| 2026-05-07 18:56 | 34.01762 | -15.06562 | 32410 ft | 510 kts | 40° |
| 2026-05-07 18:56 | 34.04382 | -15.03668 | 32679 ft | 511 kts | 41° |
| 2026-05-07 18:56 | 34.07009 | -15.00767 | 32954 ft | 511 kts | 41° |
| 2026-05-07 18:57 | 34.09630 | -14.97875 | 33222 ft | 511 kts | 41° |
| 2026-05-07 18:57 | 34.12261 | -14.94974 | 33517 ft | 512 kts | 41° |
| 2026-05-07 18:57 | 34.14887 | -14.92077 | 33793 ft | 512 kts | 41° |
| 2026-05-07 18:57 | 34.17485 | -14.89208 | 34056 ft | 512 kts | 41° |
| 2026-05-07 18:58 | 34.20113 | -14.86300 | 34290 ft | 512 kts | 41° |
| 2026-05-07 18:58 | 34.22745 | -14.83388 | 34531 ft | 513 kts | 41° |
| 2026-05-07 18:58 | 34.25374 | -14.80474 | 34751 ft | 513 kts | 41° |
| 2026-05-07 18:58 | 34.28006 | -14.77553 | 34969 ft | 513 kts | 41° |
| 2026-05-07 18:59 | 34.30639 | -14.74629 | 35178 ft | 513 kts | 41° |
| 2026-05-07 18:59 | 34.33278 | -14.71695 | 35391 ft | 514 kts | 41° |
| 2026-05-07 18:59 | 34.35912 | -14.68767 | 35592 ft | 514 kts | 41° |
| 2026-05-07 18:59 | 34.38548 | -14.65840 | 35791 ft | 514 kts | 41° |
| 2026-05-07 19:00 | 34.41180 | -14.62912 | 35941 ft | 515 kts | 41° |
| 2026-05-07 19:00 | 34.46427 | -14.57062 | 35978 ft | 517 kts | 41° |
| 2026-05-07 19:01 | 34.51717 | -14.51147 | 35967 ft | 517 kts | 41° |
| 2026-05-07 19:01 | 34.57012 | -14.45211 | 35975 ft | 518 kts | 42° |
| 2026-05-07 19:02 | 34.62309 | -14.39262 | 35987 ft | 518 kts | 42° |
| 2026-05-07 19:02 | 34.67602 | -14.33321 | 35979 ft | 517 kts | 42° |
| 2026-05-07 19:03 | 34.72890 | -14.27378 | 35974 ft | 517 kts | 42° |
| 2026-05-07 19:03 | 34.78135 | -14.21463 | 35963 ft | 517 kts | 43° |
| 2026-05-07 19:04 | 34.83414 | -14.15497 | 35964 ft | 517 kts | 43° |
| 2026-05-07 19:04 | 34.88689 | -14.09524 | 35962 ft | 518 kts | 43° |